Time;durP1;ratioP1;P1;durP2;ratioP2;P2;SDS_P1;SDS_P2;PMS_P1;PMS_P2;Temp;Humidity;BMP_temperature;BMP_pressure;BME280_temperature;BME280_humidity;BME280_pressure;Samples;Min_cycle;Max_cycle;Signal;HPM_P1;HPM_P2
2021/05/24 00:02:16;;;;;;;4.13;1.52;;;384.50;1945.60;;;;;;5050236;28;20021;-56
2021/05/24 00:04:42;;;;;;;1.77;1.30;;;384.50;1945.60;;;;;;5051205;28;20126;-55
2021/05/24 00:07:08;;;;;;;2.42;1.50;;;384.50;1971.20;;;;;;5050807;28;20285;-55
2021/05/24 00:09:35;;;;;;;5.00;1.98;;;384.40;1971.20;;;;;;5050806;28;20029;-56
2021/05/24 00:12:02;;;;;;;3.35;1.60;;;384.40;1971.20;;;;;;5050762;28;20119;-56
2021/05/24 00:14:29;;;;;;;3.42;1.90;;;384.40;1996.80;;;;;;5051262;28;20029;-57
2021/05/24 00:16:55;;;;;;;3.58;1.52;;;384.40;1996.80;;;;;;5054961;28;20023;-55
2021/05/24 00:19:22;;;;;;;3.17;1.80;;;384.30;1996.80;;;;;;5056277;28;20096;-55
2021/05/24 00:21:48;;;;;;;4.43;1.65;;;384.40;1996.80;;;;;;5056186;28;20473;-55
2021/05/24 00:24:13;;;;;;;3.95;1.63;;;384.30;1996.80;;;;;;5056129;28;20116;-55
2021/05/24 00:26:40;;;;;;;4.13;1.90;;;384.40;1996.80;;;;;;5056280;28;20036;-56
2021/05/24 00:29:06;;;;;;;2.35;1.50;;;384.30;2022.40;;;;;;5056058;28;20428;-55
2021/05/24 00:31:32;;;;;;;5.35;1.75;;;384.30;1996.80;;;;;;5056326;28;20025;-55
2021/05/24 00:33:58;;;;;;;3.22;1.70;;;384.30;2022.40;;;;;;5056012;28;20469;-55
2021/05/24 00:36:24;;;;;;;3.45;1.60;;;384.20;2022.40;;;;;;5055919;28;20021;-62
2021/05/24 00:38:50;;;;;;;3.15;1.50;;;384.20;2048.00;;;;;;5055776;28;20048;-56
2021/05/24 00:41:16;;;;;;;2.92;1.48;;;384.20;2048.00;;;;;;5055824;28;20381;-56
2021/05/24 00:43:42;;;;;;;3.08;1.52;;;384.10;2048.00;;;;;;5056038;28;20031;-56
2021/05/24 00:46:08;;;;;;;4.65;1.75;;;384.10;2048.00;;;;;;5055648;28;20496;-56
2021/05/24 00:48:34;;;;;;;3.50;1.98;;;384.10;2048.00;;;;;;5055876;28;20105;-56
2021/05/24 00:51:00;;;;;;;2.55;1.52;;;384.10;2048.00;;;;;;5055917;28;20057;-55
2021/05/24 00:53:26;;;;;;;2.35;1.60;;;384.00;2048.00;;;;;;5055548;28;20032;-65
2021/05/24 00:55:52;;;;;;;4.65;1.80;;;384.10;2073.60;;;;;;5055808;28;20025;-55
2021/05/24 00:58:18;;;;;;;3.10;1.75;;;384.00;2073.60;;;;;;5055468;28;20017;-55
2021/05/24 01:00:47;;;;;;;6.93;1.83;;;384.10;2048.00;;;;;;5055415;28;20029;-56
2021/05/24 01:03:14;;;;;;;2.08;1.55;;;384.10;2048.00;;;;;;5055358;28;20465;-56
2021/05/24 01:05:43;;;;;;;4.32;2.10;;;384.00;2073.60;;;;;;5055252;28;20040;-56
2021/05/24 01:08:12;;;;;;;4.45;2.05;;;384.10;2073.60;;;;;;5055351;28;20028;-56
2021/05/24 01:10:38;;;;;;;2.70;1.80;;;384.00;2048.00;;;;;;5055361;28;20047;-56
2021/05/24 01:13:07;;;;;;;2.45;1.90;;;384.00;2048.00;;;;;;5055273;28;20512;-55
2021/05/24 01:15:33;;;;;;;5.80;4.32;;;384.00;2073.60;;;;;;5055383;28;20434;-56
2021/05/24 01:17:59;;;;;;;6.68;5.95;;;384.00;2048.00;;;;;;5055448;28;20377;-55
2021/05/24 01:20:27;;;;;;;9.98;8.95;;;384.00;2048.00;;;;;;5055117;28;20021;-65
2021/05/24 01:23:08;;;;;;;9.45;8.43;;;384.00;2048.00;;;;;;5056096;28;20050;-56
2021/05/24 01:25:45;;;;;;;10.25;9.25;;;384.10;2048.00;;;;;;5054927;28;20056;-56
2021/05/24 01:28:14;;;;;;;9.23;8.25;;;384.00;2048.00;;;;;;5053844;28;20033;-57
2021/05/24 01:30:41;;;;;;;11.07;8.57;;;384.00;2048.00;;;;;;5055191;28;20116;-56
2021/05/24 01:33:09;;;;;;;10.02;8.82;;;384.00;2048.00;;;;;;5054819;28;20021;-56
2021/05/24 01:35:36;;;;;;;6.82;4.78;;;384.00;2048.00;;;;;;5055061;28;20107;-56
2021/05/24 01:38:04;;;;;;;3.80;2.80;;;384.00;2048.00;;;;;;5054527;28;20040;-56
2021/05/24 01:40:30;;;;;;;4.47;2.47;;;384.00;2048.00;;;;;;5054760;28;20025;-66
2021/05/24 01:42:58;;;;;;;4.20;2.60;;;384.00;2048.00;;;;;;5054648;28;20059;-55
2021/05/24 01:45:25;;;;;;;5.13;3.05;;;384.00;2048.00;;;;;;5054514;28;20037;-59
2021/05/24 01:47:51;;;;;;;4.95;3.00;;;359.30;2048.00;;;;;;5054604;28;20033;-56
2021/05/24 01:50:17;;;;;;;3.97;2.80;;;359.30;2048.00;;;;;;5054486;28;20029;-55
2021/05/24 01:52:44;;;;;;;4.05;2.58;;;359.20;2073.60;;;;;;5036628;28;20056;-56
2021/05/24 01:55:11;;;;;;;6.90;2.80;;;359.20;2073.60;;;;;;5054368;28;20033;-55
2021/05/24 01:57:38;;;;;;;5.45;2.90;;;359.20;2073.60;;;;;;5054330;28;20029;-56
2021/05/24 02:00:13;;;;;;;3.40;2.50;;;359.20;2073.60;;;;;;5054317;28;20033;-66
2021/05/24 02:02:44;;;;;;;5.68;2.90;;;359.30;2073.60;;;;;;5054347;28;20017;-56
2021/05/24 02:05:11;;;;;;;3.60;2.28;;;359.20;2073.60;;;;;;5054449;28;20079;-65
2021/05/24 02:07:37;;;;;;;3.80;2.28;;;359.20;2073.60;;;;;;5054173;28;20040;-55
2021/05/24 02:10:09;;;;;;;6.10;2.47;;;359.30;2048.00;;;;;;5036347;28;20385;-56
2021/05/24 02:12:35;;;;;;;4.10;2.60;;;384.00;2048.00;;;;;;5054373;28;20029;-56
2021/05/24 02:15:02;;;;;;;4.28;2.22;;;384.00;2048.00;;;;;;5054011;28;20063;-58
2021/05/24 02:17:28;;;;;;;4.20;2.47;;;384.00;2048.00;;;;;;5054028;28;20035;-64
2021/05/24 02:19:55;;;;;;;2.65;2.03;;;359.30;2048.00;;;;;;5053932;28;20033;-55
2021/05/24 02:22:21;;;;;;;4.72;2.20;;;359.30;2048.00;;;;;;5053869;28;20066;-55
2021/05/24 02:24:47;;;;;;;4.55;2.00;;;359.30;2048.00;;;;;;5053861;28;20060;-55
2021/05/24 02:27:12;;;;;;;4.32;2.08;;;359.20;2073.60;;;;;;5053719;28;20033;-55
2021/05/24 02:29:40;;;;;;;5.72;2.40;;;359.20;2048.00;;;;;;5053860;28;20025;-56
2021/05/24 02:32:07;;;;;;;4.95;2.17;;;359.30;2048.00;;;;;;5053783;28;20040;-65
2021/05/24 02:34:34;;;;;;;4.75;1.95;;;359.30;2048.00;;;;;;5054011;28;20374;-56
2021/05/24 02:37:00;;;;;;;4.32;2.10;;;359.30;2022.40;;;;;;5053736;28;20499;-55
2021/05/24 02:39:26;;;;;;;2.92;2.15;;;359.30;2048.00;;;;;;5053071;28;20040;-56
2021/05/24 02:41:52;;;;;;;3.90;2.30;;;359.30;2048.00;;;;;;5053592;28;20040;-55
2021/05/24 02:44:18;;;;;;;6.38;2.58;;;359.20;2048.00;;;;;;5053887;28;20021;-55
2021/05/24 02:46:44;;;;;;;7.28;2.53;;;359.20;2048.00;;;;;;5053760;28;20123;-56
2021/05/24 02:49:10;;;;;;;3.53;2.03;;;359.20;2048.00;;;;;;5053778;28;20071;-55
2021/05/24 02:51:37;;;;;;;6.65;2.08;;;359.20;2048.00;;;;;;5053417;28;20469;-55
2021/05/24 02:54:04;;;;;;;6.90;2.22;;;359.30;2022.40;;;;;;5053431;28;20021;-56
2021/05/24 02:56:31;;;;;;;6.13;2.63;;;359.30;2022.40;;;;;;5053378;28;20036;-56
2021/05/24 02:58:57;;;;;;;3.60;2.13;;;359.20;2022.40;;;;;;5053359;28;20040;-55
2021/05/24 03:01:26;;;;;;;9.20;3.92;;;359.10;2048.00;;;;;;5053908;28;20017;-55
2021/05/24 03:03:56;;;;;;;8.07;4.53;;;359.10;2048.00;;;;;;5053585;28;20072;-55
2021/05/24 03:06:23;;;;;;;10.20;4.28;;;359.10;2048.00;;;;;;5053580;28;20052;-56
2021/05/24 03:08:49;;;;;;;5.40;3.35;;;359.10;2048.00;;;;;;5053266;28;20025;-56
2021/05/24 03:11:18;;;;;;;7.90;3.38;;;359.10;2073.60;;;;;;5053534;28;20047;-56
2021/05/24 03:13:44;;;;;;;6.50;2.53;;;358.90;2073.60;;;;;;5053510;28;20064;-55
2021/05/24 03:16:11;;;;;;;4.57;2.40;;;358.90;2073.60;;;;;;5053458;28;20029;-65
2021/05/24 03:18:36;;;;;;;4.95;2.15;;;358.90;2073.60;;;;;;5053111;28;20052;-56
2021/05/24 03:21:05;;;;;;;5.60;2.33;;;358.90;2073.60;;;;;;5053129;28;20063;-55
2021/05/24 03:23:31;;;;;;;5.38;2.72;;;358.90;2073.60;;;;;;5053406;28;20473;-55
2021/05/24 03:25:57;;;;;;;4.55;2.35;;;358.90;2073.60;;;;;;5053189;28;20037;-55
2021/05/24 03:28:23;;;;;;;6.57;2.33;;;358.90;2073.60;;;;;;5053071;28;20040;-55
2021/05/24 03:30:48;;;;;;;5.50;2.10;;;359.00;2073.60;;;;;;5053157;28;20033;-56
2021/05/24 03:33:15;;;;;;;5.30;2.30;;;359.10;2048.00;;;;;;5053393;28;20036;-55
2021/05/24 03:35:41;;;;;;;4.55;2.38;;;359.10;2048.00;;;;;;5053366;28;20044;-55
2021/05/24 03:38:06;;;;;;;7.25;2.55;;;359.20;2022.40;;;;;;5053032;28;20145;-66
2021/05/24 03:40:32;;;;;;;7.32;2.15;;;359.20;2048.00;;;;;;5052916;28;20025;-55
2021/05/24 03:42:59;;;;;;;9.23;2.30;;;359.20;2022.40;;;;;;5053022;28;20108;-55
2021/05/24 03:45:27;;;;;;;4.63;2.60;;;359.20;2048.00;;;;;;5053117;28;20033;-65
2021/05/24 03:47:54;;;;;;;2.88;1.88;;;359.20;2048.00;;;;;;5052888;28;20470;-55
2021/05/24 03:50:20;;;;;;;4.97;2.72;;;359.20;2022.40;;;;;;5035078;28;20025;-55
2021/05/24 03:52:47;;;;;;;6.68;2.65;;;359.20;2048.00;;;;;;5056696;28;20033;-55
2021/05/24 03:55:19;;;;;;;3.05;2.50;;;359.20;2048.00;;;;;;5056714;28;20025;-56
2021/05/24 03:57:47;;;;;;;3.60;2.37;;;384.00;2048.00;;;;;;5056656;28;20482;-55
2021/05/24 04:00:15;;;;;;;8.13;2.28;;;359.30;2048.00;;;;;;5056881;28;20266;-56
2021/05/24 04:02:42;;;;;;;6.78;3.22;;;359.30;2048.00;;;;;;5056577;28;20067;-56
2021/05/24 04:05:15;;;;;;;3.45;2.55;;;359.30;2048.00;;;;;;5056736;28;20052;-67
2021/05/24 04:07:43;;;;;;;6.45;2.83;;;359.30;2073.60;;;;;;5056545;28;20505;-55
2021/05/24 04:10:10;;;;;;;11.80;2.75;;;359.20;2073.60;;;;;;5056347;28;20498;-56
2021/05/24 04:12:36;;;;;;;5.15;2.50;;;359.30;2073.60;;;;;;5056371;28;20048;-56
2021/05/24 04:15:01;;;;;;;6.20;2.47;;;359.30;2073.60;;;;;;5056396;28;20029;-57
2021/05/24 04:17:29;;;;;;;6.20;2.50;;;359.30;2073.60;;;;;;5056260;28;20458;-57
2021/05/24 04:19:55;;;;;;;5.93;2.33;;;384.00;2048.00;;;;;;5056246;28;20033;-55
2021/05/24 04:22:22;;;;;;;6.28;2.35;;;384.10;2048.00;;;;;;5056121;28;20045;-55
2021/05/24 04:24:48;;;;;;;3.45;2.67;;;384.20;2022.40;;;;;;5056457;28;20040;-55
2021/05/24 04:27:13;;;;;;;5.28;3.50;;;384.20;2022.40;;;;;;5056108;28;20496;-55
2021/05/24 04:29:39;;;;;;;7.00;3.70;;;384.30;2022.40;;;;;;5056400;28;20071;-55
2021/05/24 04:32:05;;;;;;;6.47;3.20;;;384.30;2022.40;;;;;;5056046;28;20485;-56
2021/05/24 04:34:31;;;;;;;6.25;2.97;;;384.20;2022.40;;;;;;5056284;28;20112;-56
2021/05/24 04:36:57;;;;;;;5.38;3.40;;;384.30;2022.40;;;;;;5056008;28;20132;-55
2021/05/24 04:39:23;;;;;;;7.70;3.40;;;384.30;2022.40;;;;;;5055784;28;20497;-55
2021/05/24 04:41:49;;;;;;;8.55;2.92;;;384.40;2022.40;;;;;;5055863;28;20079;-55
2021/05/24 04:44:20;;;;;;;7.65;2.85;;;384.40;2022.40;;;;;;5055823;28;20021;-55
2021/05/24 04:46:47;;;;;;;3.60;2.25;;;384.40;2022.40;;;;;;5056051;28;20044;-55
2021/05/24 04:49:13;;;;;;;5.97;2.40;;;384.50;1996.80;;;;;;5056542;28;20025;-56
2021/05/24 04:51:39;;;;;;;6.82;2.17;;;384.50;1996.80;;;;;;5055829;28;20470;-69
2021/05/24 04:54:06;;;;;;;4.63;2.60;;;384.70;1996.80;;;;;;5055920;28;20137;-56
2021/05/24 04:56:34;;;;;;;5.20;4.30;;;384.70;1996.80;;;;;;5055525;28;20500;-56
2021/05/24 04:59:00;;;;;;;5.65;2.20;;;384.70;1971.20;;;;;;5055823;28;20025;-56
2021/05/24 05:01:26;;;;;;;5.95;2.30;;;384.80;1996.80;;;;;;5055152;28;20055;-65
2021/05/24 05:03:52;;;;;;;7.75;2.50;;;384.80;1996.80;;;;;;5055509;28;20032;-57
2021/05/24 05:06:18;;;;;;;4.72;2.90;;;384.90;1971.20;;;;;;5055353;28;20044;-56
2021/05/24 05:08:44;;;;;;;6.55;3.03;;;409.60;1996.80;;;;;;5055344;28;20108;-56
2021/05/24 05:11:10;;;;;;;2.83;2.08;;;409.60;1996.80;;;;;;5055450;28;20121;-66
2021/05/24 05:13:36;;;;;;;7.28;2.60;;;409.60;1996.80;;;;;;5055915;28;20075;-65
2021/05/24 05:16:03;;;;;;;6.45;2.40;;;409.60;1971.20;;;;;;5055276;28;20043;-56
2021/05/24 05:18:29;;;;;;;4.10;2.10;;;409.70;1971.20;;;;;;5055145;28;20021;-56
2021/05/24 05:20:54;;;;;;;4.28;2.17;;;409.70;1920.00;;;;;;5055458;28;20055;-56
2021/05/24 05:23:20;;;;;;;5.03;2.15;;;409.80;1945.60;;;;;;5055328;28;20043;-56
2021/05/24 05:25:46;;;;;;;5.55;2.53;;;409.80;1920.00;;;;;;5055875;28;20025;-55
2021/05/24 05:28:12;;;;;;;4.00;2.38;;;409.90;1920.00;;;;;;5055273;28;20086;-57
2021/05/24 05:30:38;;;;;;;7.03;2.30;;;409.90;1920.00;;;;;;5054958;28;20477;-56
2021/05/24 05:33:04;;;;;;;5.38;1.70;;;410.00;1920.00;;;;;;5055240;28;20028;-56
2021/05/24 05:35:30;;;;;;;2.47;1.33;;;410.00;1894.40;;;;;;5055173;28;20033;-65
2021/05/24 05:37:56;;;;;;;7.05;1.70;;;409.90;1868.80;;;;;;5054645;28;20044;-66
2021/05/24 05:40:23;;;;;;;3.63;1.45;;;410.00;1868.80;;;;;;5055076;28;20049;-55
2021/05/24 05:42:49;;;;;;;2.15;1.30;;;410.10;1868.80;;;;;;5054877;28;20017;-65
2021/05/24 05:45:16;;;;;;;4.25;1.30;;;410.00;1868.80;;;;;;5054895;28;20024;-56
2021/05/24 05:47:45;;;;;;;14.05;1.77;;;410.10;1894.40;;;;;;5054576;28;20082;-56
2021/05/24 05:50:12;;;;;;;4.45;1.27;;;410.10;1843.20;;;;;;5054345;28;20037;-56
2021/05/24 05:52:38;;;;;;;3.72;1.40;;;410.10;1843.20;;;;;;5052557;28;20056;-55
2021/05/24 05:55:05;;;;;;;3.20;1.10;;;410.30;1843.20;;;;;;5052452;28;20024;-56
2021/05/24 05:57:31;;;;;;;5.05;1.30;;;410.30;1843.20;;;;;;5052353;28;20041;-55
2021/05/24 05:59:56;;;;;;;9.13;2.00;;;410.30;1817.60;;;;;;5052294;28;20029;-56
2021/05/24 06:02:22;;;;;;;6.85;1.55;;;410.30;1817.60;;;;;;5052652;28;20025;-55
2021/05/24 06:04:48;;;;;;;1.88;1.20;;;410.30;1843.20;;;;;;5052623;28;20450;-56
2021/05/24 06:07:15;;;;;;;7.60;2.15;;;410.40;1843.20;;;;;;5053592;28;20033;-55
2021/05/24 06:09:42;;;;;;;5.55;1.20;;;410.50;1843.20;;;;;;5054229;28;20100;-55
2021/05/24 06:12:08;;;;;;;3.08;1.27;;;435.20;1817.60;;;;;;5054249;28;20466;-56
2021/05/24 06:14:35;;;;;;;3.47;0.93;;;435.30;1817.60;;;;;;5053731;28;20488;-55
2021/05/24 06:17:00;;;;;;;2.33;1.08;;;435.40;1817.60;;;;;;5054121;28;20029;-55
2021/05/24 06:19:26;;;;;;;5.20;1.70;;;435.50;1792.00;;;;;;5054245;28;20032;-56
2021/05/24 06:21:52;;;;;;;7.50;1.80;;;435.50;1792.00;;;;;;5054268;28;20109;-55
2021/05/24 06:24:18;;;;;;;5.38;1.35;;;435.50;1792.00;;;;;;5054224;28;20082;-55
2021/05/24 06:26:44;;;;;;;5.68;1.38;;;435.60;1792.00;;;;;;5053885;28;20045;-55
2021/05/24 06:29:10;;;;;;;3.15;1.63;;;435.70;1766.40;;;;;;5054155;28;20489;-56
2021/05/24 06:31:38;;;;;;;3.90;1.40;;;435.90;1766.40;;;;;;5053373;28;20068;-56
2021/05/24 06:34:04;;;;;;;5.15;1.50;;;436.00;1740.80;;;;;;5054084;28;20074;-56
2021/05/24 06:36:30;;;;;;;10.13;1.92;;;436.10;1740.80;;;;;;5054047;28;20409;-56
2021/05/24 06:38:56;;;;;;;4.30;1.30;;;461.10;1740.80;;;;;;5053839;28;20091;-56
2021/05/24 06:41:22;;;;;;;19.83;1.85;;;461.10;1740.80;;;;;;5054395;28;20075;-55
2021/05/24 06:43:48;;;;;;;2.90;1.20;;;461.10;1715.20;;;;;;5053686;28;20028;-55
2021/05/24 06:46:14;;;;;;;3.20;1.27;;;461.20;1689.60;;;;;;5053568;28;20473;-56
2021/05/24 06:48:40;;;;;;;6.90;1.45;;;461.20;1664.00;;;;;;5053879;28;20432;-55
2021/05/24 06:51:06;;;;;;;6.93;1.45;;;461.20;1664.00;;;;;;5053821;28;20527;-56
2021/05/24 06:53:32;;;;;;;4.30;1.00;;;461.30;1689.60;;;;;;5053804;28;20017;-55
2021/05/24 06:55:58;;;;;;;3.38;1.17;;;461.50;1664.00;;;;;;5053480;28;20458;-55
2021/05/24 06:58:24;;;;;;;3.70;1.30;;;461.50;1638.40;;;;;;5053659;28;20025;-56
2021/05/24 07:00:50;;;;;;;3.63;1.13;;;461.60;1638.40;;;;;;5053771;28;20036;-56
2021/05/24 07:03:16;;;;;;;3.85;1.00;;;461.60;1638.40;;;;;;5053683;28;20025;-56
2021/05/24 07:05:41;;;;;;;4.53;1.30;;;461.60;1664.00;;;;;;5053589;28;20037;-55
2021/05/24 07:08:07;;;;;;;3.58;1.20;;;461.60;1664.00;;;;;;5053307;28;20159;-56
2021/05/24 07:10:33;;;;;;;2.75;1.00;;;486.40;1664.00;;;;;;5053256;28;20040;-55
2021/05/24 07:12:59;;;;;;;5.15;1.17;;;486.40;1664.00;;;;;;5053296;28;20024;-57
2021/05/24 07:15:25;;;;;;;33.58;3.45;;;461.70;1638.40;;;;;;5053290;28;20032;-56
2021/05/24 07:17:51;;;;;;;5.30;1.73;;;461.60;1638.40;;;;;;5053166;28;20033;-56
2021/05/24 07:20:17;;;;;;;5.75;1.23;;;461.60;1612.80;;;;;;5053319;28;20040;-68
2021/05/24 07:22:42;;;;;;;3.28;1.20;;;486.40;1638.40;;;;;;5052223;28;20437;-56
2021/05/24 07:25:09;;;;;;;3.03;1.30;;;486.50;1638.40;;;;;;5052793;28;20033;-56
2021/05/24 07:27:34;;;;;;;3.28;1.20;;;486.50;1612.80;;;;;;5055159;28;20534;-56
2021/05/24 07:30:00;;;;;;;3.22;1.17;;;486.60;1587.20;;;;;;5055282;28;20029;-56
2021/05/24 07:32:26;;;;;;;1.58;1.00;;;486.70;1638.40;;;;;;5055265;28;20036;-56
2021/05/24 07:34:52;;;;;;;2.90;1.33;;;486.70;1612.80;;;;;;5055484;28;20075;-55
2021/05/24 07:37:18;;;;;;;8.77;1.67;;;486.80;1612.80;;;;;;5055520;28;20453;-55
2021/05/24 07:39:44;;;;;;;2.92;1.27;;;486.90;1587.20;;;;;;5056930;28;20056;-55
2021/05/24 07:42:10;;;;;;;3.17;1.50;;;486.80;1587.20;;;;;;5057044;28;20465;-55
2021/05/24 07:44:36;;;;;;;6.43;1.80;;;486.90;1587.20;;;;;;5056984;28;20029;-56
2021/05/24 07:47:03;;;;;;;5.70;1.50;;;486.80;1612.80;;;;;;5056850;28;20080;-55
2021/05/24 07:49:29;;;;;;;4.47;1.85;;;486.80;1612.80;;;;;;5057194;28;20108;-58
2021/05/24 07:51:55;;;;;;;4.45;1.33;;;486.90;1612.80;;;;;;5056784;28;20446;-58
2021/05/24 07:54:22;;;;;;;9.52;1.67;;;486.90;1612.80;;;;;;5056741;28;20036;-59
2021/05/24 07:56:47;;;;;;;1.98;0.90;;;486.90;1561.60;;;;;;5056824;28;20033;-58
2021/05/24 07:59:14;;;;;;;2.25;1.30;;;487.00;1536.00;;;;;;5056707;28;20025;-58
2021/05/24 08:01:40;;;;;;;7.30;1.92;;;487.10;1561.60;;;;;;5056674;28;20033;-58
2021/05/24 08:04:07;;;;;;;2.95;1.50;;;487.20;1536.00;;;;;;5057419;28;20040;-57
2021/05/24 08:06:33;;;;;;;6.00;1.88;;;487.30;1561.60;;;;;;5056753;28;20126;-58
2021/05/24 08:08:59;;;;;;;7.32;2.13;;;487.20;1510.40;;;;;;5056570;28;20496;-58
2021/05/24 08:11:25;;;;;;;29.70;2.50;;;487.20;1536.00;;;;;;5057011;28;20021;-58
2021/05/24 08:13:53;;;;;;;5.03;1.95;;;487.20;1536.00;;;;;;5056516;28;20071;-58
2021/05/24 08:16:19;;;;;;;2.65;1.80;;;487.20;1536.00;;;;;;5056450;28;20100;-58
2021/05/24 08:18:45;;;;;;;10.23;2.08;;;487.20;1536.00;;;;;;5057088;28;20025;-58
2021/05/24 08:21:12;;;;;;;5.43;1.95;;;487.20;1510.40;;;;;;5056454;28;20025;-57
2021/05/24 08:23:38;;;;;;;3.42;2.03;;;487.20;1536.00;;;;;;5056239;28;20092;-58
2021/05/24 08:26:04;;;;;;;2.78;1.90;;;487.20;1587.20;;;;;;5056468;28;20033;-58
2021/05/24 08:28:31;;;;;;;7.47;2.10;;;487.20;1587.20;;;;;;5056432;28;20045;-58
2021/05/24 08:30:57;;;;;;;15.63;2.55;;;487.20;1587.20;;;;;;5038287;28;20028;-58
2021/05/24 08:33:23;;;;;;;6.18;1.90;;;487.20;1587.20;;;;;;5055839;28;20021;-62
2021/05/24 08:35:50;;;;;;;5.55;1.75;;;487.30;1587.20;;;;;;5048863;28;20025;-58
2021/05/24 08:38:17;;;;;;;3.03;1.52;;;487.20;1536.00;;;;;;5051746;28;20041;-59
2021/05/24 08:40:44;;;;;;;4.63;1.50;;;487.20;1510.40;;;;;;5055150;28;20017;-77
2021/05/24 08:43:10;;;;;;;3.50;1.50;;;487.20;1587.20;;;;;;5046462;28;20037;-59
2021/05/24 08:45:38;;;;;;;2.63;1.20;;;487.20;1561.60;;;;;;5054354;28;20051;-63
2021/05/24 08:48:06;;;;;;;5.60;1.33;;;487.20;1587.20;;;;;;5054315;28;20033;-70
2021/05/24 08:50:32;;;;;;;5.13;1.73;;;487.20;1587.20;;;;;;5054058;28;20025;-59
2021/05/24 08:52:58;;;;;;;3.22;1.40;;;512.00;1561.60;;;;;;5054329;28;20040;-61
2021/05/24 08:55:24;;;;;;;4.32;1.50;;;512.00;1561.60;;;;;;5053918;28;20082;-64
2021/05/24 08:57:49;;;;;;;5.90;1.65;;;512.00;1561.60;;;;;;5054170;28;20021;-59
2021/05/24 09:00:20;;;;;;;5.00;1.05;;;512.00;1561.60;;;;;;5053825;28;20294;-65
2021/05/24 09:02:50;;;;;;;7.22;1.30;;;487.30;1536.00;;;;;;5054373;28;20107;-59
2021/05/24 09:05:16;;;;;;;4.32;1.10;;;487.30;1536.00;;;;;;5053591;28;20390;-59
2021/05/24 09:07:55;;;;;;;4.75;0.95;;;487.30;1510.40;;;;;;5054107;28;20080;-64
2021/05/24 09:10:24;;;;;;;6.00;1.52;;;487.30;1510.40;;;;;;5054081;28;20044;-60
2021/05/24 09:12:51;;;;;;;6.55;1.40;;;512.00;1561.60;;;;;;5053856;28;20028;-61
2021/05/24 09:15:18;;;;;;;4.65;1.35;;;512.00;1536.00;;;;;;5053932;28;20099;-59
2021/05/24 09:17:48;;;;;;;7.93;1.30;;;512.00;1510.40;;;;;;5053640;28;20040;-59
2021/05/24 09:20:15;;;;;;;6.13;1.20;;;512.10;1536.00;;;;;;5054077;28;20028;-59
2021/05/24 09:22:42;;;;;;;5.75;0.88;;;512.20;1510.40;;;;;;5053848;28;20123;-59
2021/05/24 09:25:08;;;;;;;39.88;2.53;;;512.30;1510.40;;;;;;5053932;28;20025;-59
2021/05/24 09:27:37;;;;;;;3.85;1.17;;;512.30;1536.00;;;;;;5053268;28;20044;-59
2021/05/24 09:30:05;;;;;;;4.45;1.30;;;512.40;1510.40;;;;;;5053871;28;20025;-59
2021/05/24 09:32:33;;;;;;;3.47;1.00;;;512.60;1536.00;;;;;;5053626;28;20497;-59
2021/05/24 09:35:05;;;;;;;4.97;0.85;;;512.60;1510.40;;;;;;5053860;28;20035;-59
2021/05/24 09:37:31;;;;;;;7.90;1.20;;;512.70;1510.40;;;;;;5053445;28;20636;-59
2021/05/24 09:39:57;;;;;;;4.18;0.77;;;512.70;1484.80;;;;;;5053408;28;20386;-59
2021/05/24 09:42:23;;;;;;;6.78;0.95;;;512.70;1408.00;;;;;;5053585;28;20023;-59
2021/05/24 09:44:53;;;;;;;1.40;0.65;;;512.70;1408.00;;;;;;5053338;28;20359;-59
2021/05/24 09:47:49;;;;;;;6.40;1.17;;;512.70;1459.20;;;;;;5053302;28;20041;-59
2021/05/24 09:50:22;;;;;;;6.78;1.00;;;512.60;1433.60;;;;;;4990771;28;20505;-58
2021/05/24 09:52:48;;;;;;;2.80;0.70;;;512.50;1459.20;;;;;;4992081;28;20026;-59
2021/05/24 09:55:25;;;;;;;2.85;0.63;;;512.50;1459.20;;;;;;4991292;28;20446;-59
2021/05/24 09:57:56;;;;;;;5.10;1.10;;;512.40;1459.20;;;;;;4991679;28;20026;-59
2021/05/24 10:00:24;;;;;;;4.43;1.10;;;512.30;1459.20;;;;;;4991279;28;20399;-58
2021/05/24 10:02:53;;;;;;;7.03;1.00;;;512.30;1459.20;;;;;;4991717;28;20036;-58
2021/05/24 10:05:19;;;;;;;11.68;1.67;;;512.30;1433.60;;;;;;4991188;28;20022;-59
2021/05/24 10:07:46;;;;;;;2.67;1.20;;;512.40;1536.00;;;;;;4991188;28;20073;-58
2021/05/24 10:10:15;;;;;;;4.43;1.05;;;512.40;1484.80;;;;;;4991506;28;20030;-59
2021/05/24 10:12:40;;;;;;;2.28;0.90;;;512.50;1459.20;;;;;;4991122;28;20030;-59
2021/05/24 10:15:08;;;;;;;3.47;0.82;;;512.50;1433.60;;;;;;4991254;28;20018;-59
2021/05/24 10:17:42;;;;;;;4.40;1.20;;;512.60;1459.20;;;;;;4990801;28;20483;-59
2021/05/24 10:20:08;;;;;;;7.80;4.18;;;512.60;1459.20;;;;;;4990625;28;20561;-59
2021/05/24 10:22:34;;;;;;;5.57;2.08;;;512.50;1433.60;;;;;;4990048;28;20506;-59
2021/05/24 10:25:01;;;;;;;23.05;13.70;;;512.50;1433.60;;;;;;4990451;28;20072;-63
2021/05/24 10:27:27;;;;;;;4.85;1.85;;;512.50;1459.20;;;;;;5042696;28;20436;-59
2021/05/24 10:29:53;;;;;;;3.70;1.60;;;512.40;1459.20;;;;;;5051636;28;20021;-59
2021/05/24 10:32:22;;;;;;;22.08;3.97;;;512.40;1484.80;;;;;;5051894;28;20025;-60
2021/05/24 10:34:48;;;;;;;6.03;1.92;;;512.40;1510.40;;;;;;5052495;28;20477;-58
2021/05/24 10:37:20;;;;;;;24.33;14.85;;;512.40;1484.80;;;;;;5052571;28;20052;-59
2021/05/24 10:40:00;;;;;;;28.25;15.10;;;512.40;1484.80;;;;;;5051923;28;20502;-59
2021/05/24 10:42:42;;;;;;;26.02;15.57;;;512.40;1459.20;;;;;;5052936;28;20029;-60
2021/05/24 10:45:22;;;;;;;32.30;18.95;;;512.40;1510.40;;;;;;5052574;28;20500;-77
2021/05/24 10:48:01;;;;;;;9.07;2.33;;;512.40;1510.40;;;;;;5052243;28;20140;-58
2021/05/24 10:50:30;;;;;;;11.32;5.30;;;512.40;1510.40;;;;;;5052162;28;20075;-59
2021/05/24 10:53:04;;;;;;;62.47;40.80;;;512.40;1484.80;;;;;;5053025;28;20465;-58
2021/05/24 10:55:40;;;;;;;8.88;2.90;;;512.40;1484.80;;;;;;5053062;28;20484;-59
2021/05/24 10:58:09;;;;;;;26.50;12.77;;;512.30;1484.80;;;;;;5053572;28;20415;-59
2021/05/24 11:00:49;;;;;;;30.83;17.08;;;512.30;1484.80;;;;;;5052812;28;20052;-59
2021/05/24 11:03:15;;;;;;;16.38;4.30;;;512.40;1510.40;;;;;;5053215;28;20032;-58
2021/05/24 11:05:45;;;;;;;28.98;8.77;;;512.40;1484.80;;;;;;5053113;28;20041;-58
2021/05/24 11:08:11;;;;;;;5.75;2.15;;;512.40;1510.40;;;;;;5053492;28;20052;-59
2021/05/24 11:10:40;;;;;;;8.20;3.58;;;512.40;1433.60;;;;;;5053263;28;20452;-58
2021/05/24 11:13:11;;;;;;;22.17;8.13;;;512.50;1459.20;;;;;;5053327;28;20025;-58
2021/05/24 11:15:40;;;;;;;19.02;9.93;;;512.40;1484.80;;;;;;5053614;28;20017;-58
2021/05/24 11:18:06;;;;;;;6.10;1.77;;;512.40;1459.20;;;;;;5053574;28;20041;-58
2021/05/24 11:20:52;;;;;;;28.02;14.07;;;512.40;1433.60;;;;;;5053308;28;20052;-58
2021/05/24 11:26:12;;;;;;;;;;;512.50;1484.80;;;;;;5053375;28;20040;-59
2021/05/24 11:28:42;;;;;;;12.77;4.32;;;512.40;1510.40;;;;;;5053254;28;19905;-59
2021/05/24 11:31:16;;;;;;;6.40;2.05;;;512.50;1484.80;;;;;;5053171;28;20033;-59
2021/05/24 11:33:43;;;;;;;6.60;1.20;;;512.50;1484.80;;;;;;5053058;28;20466;-59
2021/05/24 11:36:10;;;;;;;10.95;3.17;;;512.50;1510.40;;;;;;5052514;28;20044;-59
2021/05/24 11:38:37;;;;;;;5.22;1.35;;;512.60;1510.40;;;;;;5052126;28;20037;-60
2021/05/24 11:41:16;;;;;;;5.25;1.58;;;512.60;1408.00;;;;;;5052715;28;20043;-59
2021/05/24 11:43:43;;;;;;;2.88;0.77;;;512.60;1408.00;;;;;;5051882;28;20040;-59
2021/05/24 11:46:11;;;;;;;8.57;1.80;;;512.70;1433.60;;;;;;5052818;28;20402;-58
2021/05/24 11:48:43;;;;;;;12.60;1.38;;;512.70;1459.20;;;;;;5053217;28;20025;-59
2021/05/24 11:51:13;;;;;;;7.50;0.90;;;512.70;1433.60;;;;;;5053729;28;20078;-75
2021/05/24 11:53:57;;;;;;;8.30;1.40;;;512.70;1408.00;;;;;;5053131;28;20025;-59
2021/05/24 11:56:23;;;;;;;6.40;0.90;;;512.80;1408.00;;;;;;5052989;28;20111;-58
2021/05/24 11:59:00;;;;;;;7.28;1.30;;;512.90;1382.40;;;;;;5050870;28;20049;-58
2021/05/24 12:01:26;;;;;;;17.70;2.47;;;512.90;1433.60;;;;;;5051129;28;20029;-58
2021/05/24 12:03:52;;;;;;;6.68;1.50;;;512.90;1408.00;;;;;;5051461;28;20049;-59
2021/05/24 12:06:18;;;;;;;6.20;1.63;;;512.90;1382.40;;;;;;5050654;28;20032;-58
2021/05/24 12:08:45;;;;;;;3.40;0.90;;;512.90;1408.00;;;;;;5051380;28;20029;-58
2021/05/24 12:11:15;;;;;;;3.35;1.08;;;512.90;1408.00;;;;;;5051147;28;20036;-58
2021/05/24 12:14:01;;;;;;;2.95;0.88;;;512.90;1433.60;;;;;;5056187;28;20058;-58
2021/05/24 12:16:30;;;;;;;3.90;1.13;;;512.90;1408.00;;;;;;5056716;28;20021;-58
2021/05/24 12:19:01;;;;;;;12.73;1.13;;;512.80;1382.40;;;;;;5055474;28;20029;-58
2021/05/24 12:21:35;;;;;;;8.15;1.17;;;512.80;1408.00;;;;;;5056354;28;20099;-58